Time;durP1;ratioP1;P1;durP2;ratioP2;P2;SDS_P1;SDS_P2;PMS_P1;PMS_P2;Temp;Humidity;BMP_temperature;BMP_pressure;BME280_temperature;BME280_humidity;BME280_pressure;Samples;Min_cycle;Max_cycle;Signal;HPM_P1;HPM_P2
2021/12/21 00:00:13;;;;;;;8.40;5.35;;;;;;;1.67;75.89;100852.81;5097936;28;20015;-68
2021/12/21 00:02:46;;;;;;;8.27;4.72;;;;;;;1.68;76.17;100874.84;5096354;28;20867;-69
2021/12/21 00:05:20;;;;;;;8.05;4.63;;;;;;;1.56;76.03;100859.50;5100806;27;20099;-67
2021/12/21 00:07:47;;;;;;;;;;;;;;;1.68;75.71;100880.97;5099450;28;20027;-68
2021/12/21 00:10:14;;;;;;;9.68;4.95;;;;;;;1.67;75.49;100879.25;5100276;28;19916;-67
2021/12/21 00:12:49;;;;;;;7.55;4.57;;;;;;;1.67;75.72;100881.03;5103104;28;20032;-67
2021/12/21 00:15:22;;;;;;;6.88;4.32;;;;;;;1.82;74.46;100881.25;5094358;28;20527;-67
2021/12/21 00:17:57;;;;;;;7.45;4.60;;;;;;;1.71;75.20;100875.56;5103199;28;20039;-67
2021/12/21 00:20:30;;;;;;;8.88;4.18;;;;;;;1.67;75.44;100883.66;5093474;28;20463;-67
2021/12/21 00:25:29;;;;;;;7.97;4.35;;;;;;;1.80;74.99;100896.31;5101860;28;20378;-67
2021/12/21 00:27:55;;;;;;;5.70;3.97;;;;;;;1.66;74.91;100888.13;5098640;28;20028;-67
2021/12/21 00:30:22;;;;;;;8.60;4.53;;;;;;;1.70;74.93;100883.53;5094679;28;20085;-66
2021/12/21 00:32:48;;;;;;;7.47;4.28;;;;;;;1.63;75.69;100890.03;5102172;28;20032;-66
2021/12/21 00:35:13;;;;;;;7.38;4.30;;;;;;;1.77;74.73;100895.56;5107025;28;20076;-67
2021/12/21 00:37:41;;;;;;;7.07;4.32;;;;;;;1.62;75.01;100891.78;5101582;28;20035;-67
2021/12/21 00:40:08;;;;;;;7.57;4.55;;;;;;;1.59;74.98;100896.38;5091815;28;20042;-67
2021/12/21 00:42:34;;;;;;;6.97;3.55;;;;;;;1.54;75.66;100904.50;5096888;28;20032;-66
2021/12/21 00:44:59;;;;;;;7.82;4.30;;;;;;;1.54;75.28;100904.50;5091125;28;20526;-67
2021/12/21 00:47:25;;;;;;;6.15;3.92;;;;;;;1.61;75.51;100910.41;5103123;28;20390;-67
2021/12/21 00:49:58;;;;;;;7.18;4.60;;;;;;;1.48;75.68;100915.31;5098620;28;20078;-67
2021/12/21 00:52:25;;;;;;;8.65;5.07;;;;;;;1.43;76.16;100917.28;5095905;28;20111;-68
2021/12/21 00:54:51;;;;;;;9.00;5.40;;;;;;;1.41;76.17;100939.41;5106165;28;20035;-68
2021/12/21 00:57:16;;;;;;;7.45;4.82;;;;;;;1.34;76.49;100936.16;5106691;28;20080;-67
2021/12/21 00:59:42;;;;;;;8.90;5.40;;;;;;;1.34;76.61;100964.34;5108963;28;20023;-67
2021/12/21 01:02:07;;;;;;;4.57;3.58;;;;;;;1.23;76.75;100943.63;5093517;28;20035;-67
2021/12/21 01:04:39;;;;;;;9.05;4.20;;;;;;;1.30;76.58;100947.78;5090065;28;20032;-66
2021/12/21 01:12:12;;;;;;;8.45;4.68;;;;;;;1.18;77.55;100963.25;5103279;28;20024;-66
2021/12/21 01:17:31;;;;;;;6.20;4.25;;;;;;;1.03;78.13;100969.13;5096172;28;20031;-66
2021/12/21 01:20:03;;;;;;;5.90;4.25;;;;;;;1.08;78.08;100980.38;5096921;28;20131;-66
2021/12/21 01:25:35;;;;;;;6.30;4.15;;;;;;;0.97;78.08;100974.66;5093953;28;20107;-66
2021/12/21 01:36:14;;;;;;;9.25;5.25;;;;;;;0.72;78.93;100994.97;5088568;28;20039;-68
2021/12/21 01:38:57;;;;;;;9.40;5.80;;;;;;;0.71;79.32;100983.53;5096134;28;20042;-69
2021/12/21 01:49:37;;;;;;;9.75;5.35;;;;;;;0.55;79.48;100982.38;5097153;28;20403;-69
2021/12/21 01:52:07;;;;;;;10.90;5.05;;;;;;;0.53;79.83;100986.88;5099691;28;20020;-69
2021/12/21 01:54:33;;;;;;;7.43;4.80;;;;;;;0.39;80.14;100975.97;5097783;28;20044;-69
2021/12/21 01:56:59;;;;;;;7.65;4.95;;;;;;;0.42;80.13;100996.94;5103550;28;20020;-69
2021/12/21 01:59:24;;;;;;;8.02;4.78;;;;;;;0.35;80.24;100998.06;5098598;28;20024;-70
2021/12/21 02:01:50;;;;;;;6.00;4.28;;;;;;;0.31;80.31;101007.00;5104315;28;20034;-69
2021/12/21 02:04:17;;;;;;;7.28;4.65;;;;;;;0.31;80.41;101019.31;5108394;28;20031;-69
2021/12/21 02:06:44;;;;;;;7.53;4.88;;;;;;;0.26;80.91;101023.91;5102636;27;20076;-69
2021/12/21 02:09:10;;;;;;;8.20;4.80;;;;;;;0.22;81.22;101020.50;5101343;28;20031;-69
2021/12/21 02:11:36;;;;;;;9.15;5.00;;;;;;;0.18;81.15;101026.81;5102894;28;20140;-69
2021/12/21 02:14:02;;;;;;;7.95;4.43;;;;;;;0.14;81.73;101013.78;5103619;28;20027;-69
2021/12/21 02:16:36;;;;;;;9.02;4.68;;;;;;;0.09;81.88;101023.66;5099119;28;20040;-69
2021/12/21 02:19:19;;;;;;;6.97;5.18;;;;;;;-0.01;82.63;101025.72;5103378;28;20022;-69
2021/12/21 02:21:50;;;;;;;7.10;4.38;;;;;;;-0.10;83.53;101018.09;5096873;28;20032;-69
2021/12/21 02:24:20;;;;;;;7.40;4.68;;;;;;;-0.11;83.28;101019.03;5099598;28;20036;-69
2021/12/21 02:26:52;;;;;;;8.18;4.97;;;;;;;-0.07;83.24;101031.19;5102211;28;20076;-69
2021/12/21 02:29:27;;;;;;;7.35;4.30;;;;;;;-0.17;83.34;101027.13;5101606;28;20399;-69
2021/12/21 02:31:53;;;;;;;7.65;4.95;;;;;;;-0.21;83.58;101031.66;5096907;28;20697;-67
2021/12/21 02:34:21;;;;;;;9.27;4.78;;;;;;;-0.17;83.33;101027.13;5103643;28;20467;-67
2021/12/21 02:36:49;;;;;;;8.52;4.88;;;;;;;-0.14;83.62;101046.34;5103246;28;20063;-67
2021/12/21 02:39:15;;;;;;;7.70;4.93;;;;;;;-0.16;83.54;101050.81;5097610;28;20031;-67
2021/12/21 02:41:41;;;;;;;7.55;4.32;;;;;;;-0.21;83.72;101051.88;5103640;28;20027;-68
2021/12/21 02:44:07;;;;;;;7.00;4.45;;;;;;;-0.23;83.76;101059.84;5108797;28;20082;-67
2021/12/21 02:46:32;;;;;;;7.65;4.95;;;;;;;-0.25;83.76;101079.25;5102257;28;20490;-67
2021/12/21 02:48:58;;;;;;;10.43;4.70;;;;;;;-0.27;83.58;101075.78;5101993;28;20051;-67
2021/12/21 02:51:24;;;;;;;8.13;4.85;;;;;;;-0.29;83.79;101080.25;5096953;28;20032;-67
2021/12/21 02:53:50;;;;;;;10.60;6.10;;;;;;;-0.30;84.06;101087.28;5095066;28;20055;-67
2021/12/21 02:56:16;;;;;;;14.93;8.65;;;;;;;-0.38;84.19;101073.47;5096856;28;20023;-67
2021/12/21 02:58:42;;;;;;;12.80;8.00;;;;;;;-0.30;83.83;101089.94;5107942;28;20116;-69
2021/12/21 03:01:10;;;;;;;11.98;6.55;;;;;;;-0.33;83.39;101086.50;5100103;28;20593;-69
2021/12/21 03:03:36;;;;;;;9.55;5.63;;;;;;;-0.37;82.80;101080.50;5102471;28;20106;-69
2021/12/21 03:06:06;;;;;;;9.48;5.78;;;;;;;-0.28;83.11;101097.78;5096389;28;20161;-69
2021/12/21 03:08:41;;;;;;;7.97;5.20;;;;;;;-0.34;83.29;101092.72;5102082;28;20032;-69
2021/12/21 03:11:22;;;;;;;7.95;4.47;;;;;;;-0.40;83.38;101085.00;5102254;28;20031;-69
2021/12/21 03:14:03;;;;;;;8.75;5.38;;;;;;;-0.45;83.12;101084.28;5101997;28;20039;-69
2021/12/21 03:16:33;;;;;;;9.27;5.90;;;;;;;-0.47;82.74;101080.81;5104748;28;20044;-69
2021/12/21 03:18:59;;;;;;;6.57;4.63;;;;;;;-0.46;81.93;101088.69;5102573;28;20034;-69
2021/12/21 03:21:25;;;;;;;7.65;5.07;;;;;;;-0.51;81.58;101090.59;5106510;28;20024;-69
2021/12/21 03:23:51;;;;;;;14.18;5.93;;;;;;;-0.53;81.01;101091.53;5104034;28;20031;-69
2021/12/21 03:26:16;;;;;;;9.38;5.80;;;;;;;-0.58;81.12;101089.03;5098538;28;20498;-69
2021/12/21 03:28:42;;;;;;;11.85;6.60;;;;;;;-0.63;81.67;101087.47;5096424;28;20114;-69
2021/12/21 03:31:09;;;;;;;15.98;7.40;;;;;;;-0.59;82.11;101099.63;5101824;28;20035;-69
2021/12/21 03:33:36;;;;;;;10.85;6.10;;;;;;;-0.61;82.52;101109.38;5097891;28;20076;-69
2021/12/21 03:36:03;;;;;;;13.70;7.20;;;;;;;-0.64;82.53;101105.03;5101781;28;20035;-69
2021/12/21 03:38:29;;;;;;;9.70;5.70;;;;;;;-0.67;82.74;101110.38;5102001;28;20063;-69
2021/12/21 03:41:01;;;;;;;9.45;5.50;;;;;;;-0.73;82.55;101105.31;5102143;28;20111;-69
2021/12/21 03:43:29;;;;;;;10.90;5.82;;;;;;;-0.69;82.64;101119.25;5098107;28;20039;-69
2021/12/21 03:46:02;;;;;;;9.43;5.93;;;;;;;-0.70;82.50;101133.34;5104447;28;20028;-69
2021/12/21 03:48:28;;;;;;;21.38;7.00;;;;;;;-0.75;82.71;101128.19;5102912;27;20442;-69
2021/12/21 03:50:54;;;;;;;13.73;7.82;;;;;;;-0.73;83.09;101125.53;5107916;27;20042;-69
2021/12/21 03:53:19;;;;;;;11.45;6.72;;;;;;;-0.80;83.50;101139.78;5104059;28;20035;-69
2021/12/21 03:55:45;;;;;;;12.40;5.82;;;;;;;-0.78;83.22;101140.56;5105992;28;20439;-69
2021/12/21 03:58:10;;;;;;;10.50;5.32;;;;;;;-0.82;83.21;101139.81;5095732;28;20476;-69
2021/12/21 04:00:36;;;;;;;10.82;5.38;;;;;;;-0.88;83.76;101150.53;5103410;28;20463;-69
2021/12/21 04:03:01;;;;;;;8.10;4.82;;;;;;;-0.96;83.88;101143.75;5098196;28;20040;-69
2021/12/21 04:05:27;;;;;;;7.60;4.38;;;;;;;-1.01;83.73;101137.72;5103039;28;20032;-69
2021/12/21 04:07:52;;;;;;;11.13;4.93;;;;;;;-1.02;83.95;101138.66;5102813;28;20032;-69
2021/12/21 04:10:18;;;;;;;9.80;5.20;;;;;;;-1.03;83.97;101153.56;5104803;28;20042;-69
2021/12/21 04:12:43;;;;;;;9.98;4.97;;;;;;;-1.01;83.48;101148.25;5103183;28;20051;-69
2021/12/21 04:15:09;;;;;;;10.60;4.97;;;;;;;-1.04;83.70;101146.59;5097691;28;20020;-69
2021/12/21 04:17:35;;;;;;;8.95;5.15;;;;;;;-1.07;83.68;101149.28;5094049;28;20039;-69
2021/12/21 04:20:01;;;;;;;11.32;5.47;;;;;;;-1.09;83.45;101150.25;5099240;28;20024;-69
2021/12/21 04:22:28;;;;;;;13.93;6.22;;;;;;;-1.16;83.47;101162.69;5095869;28;20031;-69
2021/12/21 04:24:53;;;;;;;12.90;5.57;;;;;;;-1.20;83.44;101157.56;5092094;28;20502;-69
2021/12/21 04:27:19;;;;;;;14.43;6.53;;;;;;;-1.30;82.98;101156.94;5103398;28;20027;-69
2021/12/21 04:29:45;;;;;;;14.43;7.32;;;;;;;-1.32;83.16;101160.53;5100654;28;20028;-69
2021/12/21 04:32:10;;;;;;;17.00;7.05;;;;;;;-1.36;83.01;101162.38;5091302;28;20493;-69
2021/12/21 04:34:38;;;;;;;14.13;7.03;;;;;;;-1.41;82.40;101164.28;5101621;28;20034;-69
2021/12/21 04:37:04;;;;;;;14.07;6.90;;;;;;;-1.52;82.10;101161.03;5093016;28;20026;-69
2021/12/21 04:41:58;;;;;;;11.18;6.03;;;;;;;-1.56;81.49;101163.78;5100109;28;20748;-69
2021/12/21 04:44:23;;;;;;;11.13;5.60;;;;;;;-1.59;81.71;101166.47;5104571;28;20028;-69
2021/12/21 04:46:48;;;;;;;10.73;5.32;;;;;;;-1.69;81.79;101165.84;5098382;28;20489;-69
2021/12/21 04:49:14;;;;;;;10.38;5.60;;;;;;;-1.64;81.56;101186.78;5099403;28;20108;-69
2021/12/21 04:51:39;;;;;;;12.38;5.65;;;;;;;-1.72;81.03;101179.06;5102241;28;20024;-69
2021/12/21 04:54:05;;;;;;;11.02;5.95;;;;;;;-1.74;81.01;101187.91;5099595;28;20058;-69
2021/12/21 04:56:30;;;;;;;14.18;6.40;;;;;;;-1.80;81.63;101190.69;5103394;28;20035;-69
2021/12/21 04:58:56;;;;;;;11.27;6.30;;;;;;;-1.85;80.99;101197.78;5096850;28;20020;-69
2021/12/21 05:01:21;;;;;;;18.17;6.93;;;;;;;-1.83;81.31;101211.78;5105145;28;20031;-69
2021/12/21 05:03:47;;;;;;;11.52;6.30;;;;;;;-1.88;82.07;101208.38;5095265;28;20050;-69
2021/12/21 05:06:15;;;;;;;13.90;6.45;;;;;;;-1.94;82.59;101209.38;5095854;28;20371;-69
2021/12/21 05:08:41;;;;;;;21.65;7.43;;;;;;;-1.94;82.68;101217.28;5098980;28;20036;-68
2021/12/21 05:11:07;;;;;;;21.42;8.50;;;;;;;-1.94;83.02;101216.44;5105257;28;20088;-69
2021/12/21 05:13:38;;;;;;;20.88;8.40;;;;;;;-1.94;83.96;101221.69;5098177;28;20039;-69
2021/12/21 05:16:03;;;;;;;17.40;8.07;;;;;;;-1.97;84.97;101212.09;5094731;28;20034;-69
2021/12/21 05:18:29;;;;;;;17.25;8.13;;;;;;;-1.86;85.16;101225.88;5104195;28;20024;-68
2021/12/21 05:20:55;;;;;;;13.38;6.45;;;;;;;-1.85;85.11;101224.97;5103179;28;20024;-68
2021/12/21 05:23:21;;;;;;;14.85;6.97;;;;;;;-1.87;84.91;101212.75;5096670;28;20099;-68
2021/12/21 05:25:47;;;;;;;11.85;5.85;;;;;;;-1.86;85.12;101214.47;5097631;28;20065;-69
2021/12/21 05:28:14;;;;;;;12.20;5.70;;;;;;;-1.78;85.35;101231.78;5101711;28;20108;-69
2021/12/21 05:30:40;;;;;;;16.58;5.28;;;;;;;-1.71;84.15;101238.63;5096757;28;20479;-69
2021/12/21 05:33:07;;;;;;;10.80;5.68;;;;;;;-1.70;83.70;101244.78;5102013;28;20039;-68
2021/12/21 05:35:34;;;;;;;9.77;5.18;;;;;;;-1.64;82.87;101239.38;5094088;28;20409;-70
2021/12/21 05:38:03;;;;;;;7.05;4.32;;;;;;;-1.65;83.55;101240.28;5093347;28;20112;-70
2021/12/21 05:40:35;;;;;;;10.05;4.95;;;;;;;-1.60;82.70;101238.38;5090632;28;20040;-69
2021/12/21 05:43:02;;;;;;;8.38;4.82;;;;;;;-1.67;82.45;101236.81;5098618;28;20028;-69
2021/12/21 05:45:27;;;;;;;10.75;5.47;;;;;;;-1.63;82.35;101243.72;5089982;28;20422;-69
2021/12/21 05:47:53;;;;;;;12.40;6.85;;;;;;;-1.68;82.79;101245.63;5095335;28;20028;-69
2021/12/21 05:50:21;;;;;;;12.70;6.15;;;;;;;-1.68;83.06;101259.59;5100627;28;20079;-70
2021/12/21 05:52:47;;;;;;;12.60;5.97;;;;;;;-1.82;83.28;101240.66;5099864;28;20043;-70
2021/12/21 05:55:14;;;;;;;12.77;6.15;;;;;;;-1.74;83.49;101258.91;5096778;28;20020;-69
2021/12/21 05:57:40;;;;;;;12.57;6.13;;;;;;;-1.72;83.48;101265.84;5101116;28;20028;-69
2021/12/21 06:00:09;;;;;;;10.85;5.80;;;;;;;-1.71;83.49;101267.56;5098234;28;20371;-68
2021/12/21 06:02:35;;;;;;;10.15;5.93;;;;;;;-1.75;83.37;101258.03;5100780;28;20028;-69
2021/12/21 06:05:00;;;;;;;10.98;5.50;;;;;;;-1.69;83.08;101267.53;5093898;28;20042;-69
2021/12/21 06:07:26;;;;;;;7.93;5.20;;;;;;;-1.64;83.41;101278.81;5092301;28;20028;-68
2021/12/21 06:09:51;;;;;;;10.13;4.53;;;;;;;-1.66;82.87;101280.59;5101965;28;20028;-68
2021/12/21 06:12:35;;;;;;;9.82;4.95;;;;;;;-1.66;83.42;101270.09;5106466;28;20494;-69
2021/12/21 06:23:43;;;;;;;10.07;5.13;;;;;;;-1.65;83.10;101291.09;5098824;28;20034;-69
2021/12/21 06:26:08;;;;;;;9.25;5.35;;;;;;;-1.69;82.76;101285.94;5095967;28;20039;-68
2021/12/21 06:28:34;;;;;;;11.07;6.40;;;;;;;-1.64;82.30;101291.97;5105009;28;20031;-69
2021/12/21 06:31:00;;;;;;;12.63;6.63;;;;;;;-1.59;82.71;101290.06;5087476;28;20031;-66
2021/12/21 06:33:25;;;;;;;12.77;6.93;;;;;;;-1.63;81.88;101285.78;5101086;28;20020;-67
2021/12/21 06:35:51;;;;;;;14.50;7.32;;;;;;;-1.62;82.10;101292.81;5098213;28;20026;-69
2021/12/21 06:38:17;;;;;;;9.35;5.45;;;;;;;-1.72;81.63;101283.38;5096574;28;20030;-68
2021/12/21 06:40:43;;;;;;;14.20;7.07;;;;;;;-1.70;81.56;101297.34;5101437;28;20051;-69
2021/12/21 06:43:13;;;;;;;13.32;6.25;;;;;;;-1.69;81.79;101302.59;5104763;28;20096;-69
2021/12/21 06:53:32;;;;;;;16.10;6.63;;;;;;;-1.62;80.80;101301.53;5099226;28;20137;-69
2021/12/21 06:55:58;;;;;;;9.77;5.65;;;;;;;-1.61;80.76;101305.88;5102278;28;20477;-69
2021/12/21 06:58:24;;;;;;;12.55;6.28;;;;;;;-1.63;80.86;101310.34;5100888;28;20027;-69
2021/12/21 07:00:52;;;;;;;10.93;6.18;;;;;;;-1.66;80.92;101320.03;5103912;28;20114;-69
2021/12/21 07:03:18;;;;;;;18.20;6.55;;;;;;;-1.73;80.76;101297.44;5099334;28;20398;-69
2021/12/21 07:05:45;;;;;;;11.07;6.25;;;;;;;-1.71;80.77;101296.47;5099232;28;20028;-69
2021/12/21 07:08:15;;;;;;;9.30;5.80;;;;;;;-1.61;81.05;101320.81;5106163;28;20023;-69
2021/12/21 07:10:42;;;;;;;13.52;5.88;;;;;;;-1.65;80.87;101316.53;5098746;28;20154;-68
2021/12/21 07:18:35;;;;;;;14.32;6.28;;;;;;;-1.64;80.49;101318.25;5095992;28;20078;-68
2021/12/21 07:21:02;;;;;;;9.77;5.88;;;;;;;-1.68;80.60;101319.25;5102608;28;20043;-69
2021/12/21 07:23:30;;;;;;;14.23;7.07;;;;;;;-1.77;80.90;101308.91;5100088;28;20815;-69
2021/12/21 07:25:55;;;;;;;14.13;7.70;;;;;;;-1.71;81.15;101324.56;5099792;28;20027;-69
2021/12/21 07:28:21;;;;;;;14.88;8.38;;;;;;;-1.77;81.71;101312.41;5103252;28;20034;-70
2021/12/21 07:30:49;;;;;;;24.05;10.90;;;;;;;-1.79;81.50;101306.31;5106138;28;20647;-69
2021/12/21 07:33:16;;;;;;;13.68;7.93;;;;;;;-1.77;81.22;101309.78;5106069;28;20578;-70
2021/12/21 07:35:42;;;;;;;16.77;9.10;;;;;;;-1.72;81.35;101315.78;5096625;28;20028;-69
2021/12/21 07:38:07;;;;;;;16.92;8.60;;;;;;;-1.80;81.59;101298.47;5102261;28;20034;-69
2021/12/21 07:40:33;;;;;;;17.83;8.40;;;;;;;-1.63;81.43;101325.25;5103764;28;20085;-68
2021/12/21 07:43:00;;;;;;;21.05;7.65;;;;;;;-1.54;80.69;101318.03;5108120;28;20035;-69
2021/12/21 07:45:26;;;;;;;16.58;7.63;;;;;;;-1.43;80.73;101337.03;5104521;28;20035;-68
2021/12/21 07:47:52;;;;;;;18.27;9.18;;;;;;;-1.36;80.36;101343.91;5105242;28;20792;-68
2021/12/21 07:50:19;;;;;;;17.42;8.02;;;;;;;-1.25;80.03;101349.78;5103155;28;20118;-69
2021/12/21 07:52:45;;;;;;;17.33;8.43;;;;;;;-1.27;80.33;101342.81;5099791;28;20106;-69
2021/12/21 07:55:11;;;;;;;14.90;8.68;;;;;;;-1.21;79.99;101347.94;5097795;28;20028;-68
2021/12/21 07:57:37;;;;;;;16.35;7.50;;;;;;;-1.27;79.71;101334.91;5097352;28;20085;-70
2021/12/21 08:00:05;;;;;;;13.93;7.78;;;;;;;-1.06;79.08;101343.16;5095571;28;20077;-69
2021/12/21 08:02:31;;;;;;;12.27;5.78;;;;;;;-1.05;79.46;101347.53;5103864;28;20470;-68
2021/12/21 08:04:57;;;;;;;11.43;5.93;;;;;;;-1.07;79.10;101343.19;5090140;28;20475;-67
2021/12/21 08:07:29;;;;;;;11.88;7.07;;;;;;;-1.06;79.11;101331.78;5089885;28;20028;-68
2021/12/21 08:09:55;;;;;;;12.50;6.55;;;;;;;-1.00;78.40;101342.16;5093163;28;20403;-69
2021/12/21 08:12:21;;;;;;;12.88;7.10;;;;;;;-1.06;78.67;101334.41;5093881;28;20057;-68
2021/12/21 08:14:50;;;;;;;12.65;6.55;;;;;;;-1.01;78.89;101345.69;5092356;28;20026;-67
2021/12/21 08:17:17;;;;;;;13.38;6.63;;;;;;;-1.01;78.47;101356.22;5094458;28;20031;-68
2021/12/21 08:19:44;;;;;;;11.45;6.93;;;;;;;-0.96;77.97;101351.72;5092587;28;20600;-68
2021/12/21 08:22:10;;;;;;;11.50;6.85;;;;;;;-0.85;77.40;101365.47;5090773;28;20019;-68
2021/12/21 08:24:36;;;;;;;13.48;6.50;;;;;;;-0.80;76.57;101361.81;5089330;28;20052;-69
2021/12/21 08:27:05;;;;;;;15.00;6.22;;;;;;;-0.60;75.60;101363.94;5097651;28;20063;-68
2021/12/21 08:29:31;;;;;;;11.75;6.13;;;;;;;-0.57;75.41;101364.75;5093769;28;20475;-68
2021/12/21 08:31:57;;;;;;;17.83;7.10;;;;;;;-0.45;73.61;101363.56;5106398;28;20036;-68
2021/12/21 08:34:23;;;;;;;13.15;7.43;;;;;;;-0.40;72.75;101361.66;5104031;28;20028;-67
2021/12/21 08:36:49;;;;;;;20.77;7.25;;;;;;;-0.31;72.25;101364.06;5092050;28;20192;-68
2021/12/21 08:39:17;;;;;;;13.60;7.22;;;;;;;-0.20;71.44;101380.44;5100784;28;20044;-68
2021/12/21 08:41:44;;;;;;;14.35;7.72;;;;;;;-0.18;71.59;101384.78;5104081;28;20483;-68
2021/12/21 08:44:11;;;;;;;14.00;7.68;;;;;;;-0.23;72.03;101377.88;5100545;28;20099;-67
2021/12/21 08:46:39;;;;;;;11.07;7.00;;;;;;;-0.16;71.21;101382.09;5092816;28;20042;-68
2021/12/21 08:49:05;;;;;;;14.82;7.13;;;;;;;-0.06;70.41;101381.78;5097066;28;20052;-67
2021/12/21 08:51:31;;;;;;;16.42;6.53;;;;;;;-0.03;70.09;101386.13;5107483;28;20054;-67
2021/12/21 08:53:56;;;;;;;12.43;5.97;;;;;;;-0.06;69.88;101370.38;5097014;28;20066;-67
2021/12/21 08:56:22;;;;;;;12.77;6.32;;;;;;;0.00;70.00;101373.69;5099000;28;20027;-68
2021/12/21 08:58:47;;;;;;;10.73;5.78;;;;;;;0.04;69.90;101380.63;5104007;28;20064;-69
2021/12/21 09:01:12;;;;;;;10.18;6.20;;;;;;;0.03;69.84;101370.09;5104134;28;20106;-68
2021/12/21 09:03:38;;;;;;;12.70;6.43;;;;;;;-0.01;69.58;101379.03;5099716;28;20035;-66
2021/12/21 09:06:04;;;;;;;11.40;5.20;;;;;;;0.10;69.91;101395.41;5108381;28;20026;-67
2021/12/21 09:08:29;;;;;;;19.30;8.90;;;;;;;0.11;68.86;101386.59;5099178;28;20023;-67
2021/12/21 09:11:02;;;;;;;11.90;5.38;;;;;;;0.33;66.91;101395.63;5094251;28;20066;-67
2021/12/21 09:13:28;;;;;;;6.13;3.60;;;;;;;0.36;67.27;101392.03;5098887;28;20097;-68
2021/12/21 09:15:53;;;;;;;7.72;3.65;;;;;;;0.38;67.13;101391.06;5099638;28;20061;-67
2021/12/21 09:18:19;;;;;;;7.25;4.07;;;;;;;0.43;66.69;101386.53;5099721;28;20039;-67
2021/12/21 09:20:44;;;;;;;7.13;4.15;;;;;;;0.54;65.99;101386.22;5096797;28;20023;-68
2021/12/21 09:23:10;;;;;;;8.95;3.92;;;;;;;0.59;66.46;101390.44;5108602;28;20028;-67
2021/12/21 09:25:35;;;;;;;9.38;3.88;;;;;;;0.64;65.89;101385.88;5091827;28;20076;-68
2021/12/21 09:28:01;;;;;;;7.95;4.03;;;;;;;0.67;65.73;101369.09;5099593;28;20063;-67
2021/12/21 09:30:28;;;;;;;6.90;3.90;;;;;;;0.73;65.49;101375.03;5098146;28;20035;-67
2021/12/21 09:32:54;;;;;;;7.85;3.92;;;;;;;0.71;65.47;101371.56;5095325;28;20364;-67
2021/12/21 09:35:20;;;;;;;9.95;4.15;;;;;;;0.76;65.25;101372.31;5095622;28;20119;-67
2021/12/21 09:37:45;;;;;;;6.70;3.70;;;;;;;0.82;65.54;101368.59;5093242;28;20096;-67
2021/12/21 09:40:15;;;;;;;12.13;3.92;;;;;;;0.80;64.57;101358.09;5090926;28;20027;-67
2021/12/21 09:42:41;;;;;;;8.25;3.72;;;;;;;0.97;63.97;101376.06;5101464;28;20035;-67
2021/12/21 09:45:07;;;;;;;6.68;3.60;;;;;;;1.16;62.81;101374.56;5098109;28;20101;-67
2021/12/21 09:47:33;;;;;;;7.75;3.33;;;;;;;1.13;62.63;101364.94;5102910;28;20092;-67
2021/12/21 09:49:59;;;;;;;6.80;3.50;;;;;;;1.21;62.13;101357.63;5090467;28;20051;-67
2021/12/21 09:52:29;;;;;;;8.18;3.35;;;;;;;1.38;61.38;101365.84;5100997;28;20107;-67
2021/12/21 09:54:56;;;;;;;10.68;4.22;;;;;;;1.36;61.86;101365.03;5105959;28;20081;-68
2021/12/21 09:57:21;;;;;;;6.68;3.05;;;;;;;1.44;60.51;101356.84;5099430;28;20478;-66
2021/12/21 09:59:49;;;;;;;7.22;3.90;;;;;;;1.49;61.19;101368.97;5107722;28;20118;-67
2021/12/21 10:02:19;;;;;;;6.28;3.35;;;;;;;1.71;59.71;101372.63;5088181;28;20127;-67
2021/12/21 10:04:50;;;;;;;6.38;2.95;;;;;;;1.65;59.78;101359.59;5104405;28;20488;-67
2021/12/21 10:07:18;;;;;;;4.93;2.47;;;;;;;1.62;59.36;101349.13;5105369;28;20030;-66
2021/12/21 10:09:46;;;;;;;5.70;2.25;;;;;;;1.63;60.33;101357.94;5094158;28;20043;-67
2021/12/21 10:12:28;;;;;;;5.70;2.90;;;;;;;1.64;58.96;101351.72;5086760;28;20111;-68
2021/12/21 10:15:07;;;;;;;7.10;2.83;;;;;;;1.73;59.09;101349.63;5101401;28;20035;-67
2021/12/21 10:17:35;;;;;;;4.78;2.67;;;;;;;1.80;59.30;101351.16;5100303;28;20035;-68
2021/12/21 10:20:09;;;;;;;5.45;3.22;;;;;;;1.69;59.76;101329.53;5100684;28;20031;-68
2021/12/21 10:22:35;;;;;;;4.10;2.13;;;;;;;1.78;59.58;101337.09;5097591;28;20035;-68
2021/12/21 10:25:01;;;;;;;5.32;2.45;;;;;;;2.05;58.13;101335.25;5099355;28;20020;-68
2021/12/21 10:27:27;;;;;;;4.28;2.47;;;;;;;2.12;57.90;101331.44;5112433;28;20106;-67
2021/12/21 10:29:58;;;;;;;7.10;2.63;;;;;;;2.30;57.24;101333.41;5105813;28;20481;-69
2021/12/21 10:32:27;;;;;;;4.28;2.50;;;;;;;2.38;56.31;101332.19;5097140;28;20487;-67
2021/12/21 10:35:02;;;;;;;4.22;2.75;;;;;;;2.38;56.15;101333.97;5099653;28;20035;-67
2021/12/21 10:37:37;;;;;;;6.40;2.40;;;;;;;2.29;56.99;101319.31;5102462;28;20383;-68
2021/12/21 10:40:17;;;;;;;8.10;2.80;;;;;;;2.34;57.02;101313.84;5109215;28;20015;-67
2021/12/21 10:43:01;;;;;;;4.32;2.53;;;;;;;2.38;56.55;101311.03;5095869;28;20044;-67
2021/12/21 10:45:40;;;;;;;4.78;2.30;;;;;;;2.35;57.06;101316.44;5104110;28;20046;-68
2021/12/21 10:48:11;;;;;;;5.40;2.95;;;;;;;2.47;56.39;101307.16;5102281;28;20062;-67
2021/12/21 10:50:36;;;;;;;7.80;2.10;;;;;;;2.34;56.81;101287.38;5091027;28;20047;-67
2021/12/21 10:53:04;;;;;;;7.30;2.70;;;;;;;2.54;56.79;101311.28;5103082;28;20312;-68
2021/12/21 10:55:34;;;;;;;6.18;2.95;;;;;;;2.53;56.71;101301.63;5096626;28;20036;-67
2021/12/21 10:58:16;;;;;;;6.38;2.90;;;;;;;2.52;56.77;101302.56;5104227;28;20131;-67
2021/12/21 11:00:53;;;;;;;7.82;3.20;;;;;;;2.60;56.40;101297.81;5097427;28;20073;-66
2021/12/21 11:03:37;;;;;;;5.57;3.08;;;;;;;2.59;57.19;101297.88;5109042;28;20027;-66
2021/12/21 11:06:12;;;;;;;5.65;2.67;;;;;;;2.75;55.86;101288.38;5103491;28;20035;-67
2021/12/21 11:08:40;;;;;;;3.17;2.08;;;;;;;2.88;54.33;101274.59;5102211;28;20039;-67
2021/12/21 11:11:10;;;;;;;4.70;2.53;;;;;;;2.94;55.16;101292.88;5099944;28;20479;-68
2021/12/21 11:13:37;;;;;;;3.58;2.05;;;;;;;2.99;54.57;101290.00;5092181;28;20025;-68
2021/12/21 11:16:07;;;;;;;3.95;1.75;;;;;;;3.09;54.83;101286.94;5099036;28;20035;-67
2021/12/21 11:18:36;;;;;;;7.43;2.80;;;;;;;3.25;53.65;101284.47;5105660;28;20086;-67
2021/12/21 11:21:06;;;;;;;6.93;1.70;;;;;;;3.15;54.13;101272.56;5094771;28;20087;-68
2021/12/21 11:23:34;;;;;;;3.92;2.03;;;;;;;3.05;55.13;101261.50;5100070;28;20463;-68
2021/12/21 11:26:01;;;;;;;4.97;2.13;;;;;;;3.14;54.48;101260.25;5098248;28;20031;-67
2021/12/21 11:28:35;;;;;;;3.15;1.85;;;;;;;3.34;55.03;101269.06;5102327;28;20043;-68
2021/12/21 11:31:03;;;;;;;3.95;2.25;;;;;;;3.35;55.10;101267.28;5103429;28;20110;-67
2021/12/21 11:33:34;;;;;;;4.25;2.70;;;;;;;3.52;54.49;101265.59;5104151;28;20039;-68
2021/12/21 11:38:47;;;;;;;4.85;2.47;;;;;;;3.43;54.62;101259.84;5102373;28;20108;-66
2021/12/21 11:41:12;;;;;;;3.85;2.28;;;;;;;3.40;54.87;101259.97;5109747;28;20039;-67
2021/12/21 11:43:47;;;;;;;4.65;2.47;;;;;;;3.42;54.61;101252.84;5098671;28;20028;-67
2021/12/21 11:46:16;;;;;;;3.42;2.20;;;;;;;3.37;55.08;101263.63;5104766;28;20032;-68
2021/12/21 11:49:06;;;;;;;4.03;2.22;;;;;;;3.51;54.82;101268.34;5091805;28;20594;-67
2021/12/21 11:51:32;;;;;;;7.28;2.97;;;;;;;3.63;54.52;101263.34;5096671;28;20040;-69
2021/12/21 11:53:58;;;;;;;6.18;3.50;;;;;;;3.64;53.98;101261.56;5092553;28;20036;-66
2021/12/21 11:56:26;;;;;;;7.50;3.35;;;;;;;3.59;54.26;101256.47;5099555;28;20024;-68
2021/12/21 11:58:54;;;;;;;7.30;2.63;;;;;;;3.59;55.08;101258.25;5098578;28;20030;-68
2021/12/21 12:01:26;;;;;;;4.80;2.50;;;;;;;3.61;54.82;101254.59;5096846;28;20020;-67
2021/12/21 12:04:04;;;;;;;4.38;2.47;;;;;;;3.62;55.03;101255.47;5103710;28;20031;-67
2021/12/21 12:06:50;;;;;;;5.43;2.72;;;;;;;3.57;55.23;101244.19;5095024;28;20038;-67
2021/12/21 12:09:31;;;;;;;4.90;2.70;;;;;;;3.79;54.96;101243.16;5097732;28;20024;-68
2021/12/21 12:12:11;;;;;;;7.65;2.63;;;;;;;3.81;54.32;101229.81;5098177;28;20035;-68
2021/12/21 12:14:38;;;;;;;6.38;2.80;;;;;;;3.71;54.77;101233.84;5096317;28;20377;-67
2021/12/21 12:17:13;;;;;;;4.30;2.45;;;;;;;3.69;54.41;101235.69;5096597;28;20022;-67
2021/12/21 12:19:43;;;;;;;5.32;3.00;;;;;;;3.70;53.67;101240.91;5107736;28;20032;-68
2021/12/21 12:22:13;;;;;;;10.70;2.83;;;;;;;3.98;52.83;101248.47;5102607;28;20051;-66
2021/12/21 12:24:45;;;;;;;6.90;3.00;;;;;;;3.85;53.41;101242.88;5097955;28;20044;-66
2021/12/21 12:27:20;;;;;;;3.67;2.90;;;;;;;3.74;53.20;101217.78;5098056;28;20068;-67